sensor_id;sensor_type;location;lat;lon;timestamp;pressure;altitude;pressure_sealevel;temperature;humidity
29215;BME280;16252;49.816;7.964;2023-10-19T00:00:55;98192.56;;;14.28;60.69
29215;BME280;16252;49.816;7.964;2023-10-19T00:03:23;98173.28;;;14.24;60.52
29215;BME280;16252;49.816;7.964;2023-10-19T00:05:49;98214.69;;;14.53;60.39
29215;BME280;16252;49.816;7.964;2023-10-19T00:08:14;98180.25;;;14.34;60.44
29215;BME280;16252;49.816;7.964;2023-10-19T00:10:44;98172.72;;;14.29;60.58
29215;BME280;16252;49.816;7.964;2023-10-19T00:13:11;98190.75;;;14.43;60.36
29215;BME280;16252;49.816;7.964;2023-10-19T00:15:42;98194.72;;;14.47;60.86
29215;BME280;16252;49.816;7.964;2023-10-19T00:18:17;98184.97;;;14.46;60.79
29215;BME280;16252;49.816;7.964;2023-10-19T00:20:44;98191.38;;;14.45;60.42
29215;BME280;16252;49.816;7.964;2023-10-19T00:23:10;98181.53;;;14.38;60.61
29215;BME280;16252;49.816;7.964;2023-10-19T00:25:38;98164.50;;;14.30;60.58
29215;BME280;16252;49.816;7.964;2023-10-19T00:28:07;98171.63;;;14.38;60.74
29215;BME280;16252;49.816;7.964;2023-10-19T00:30:32;98171.63;;;14.38;60.83
29215;BME280;16252;49.816;7.964;2023-10-19T00:33:01;98178.28;;;14.42;60.47
29215;BME280;16252;49.816;7.964;2023-10-19T00:35:33;98187.03;;;14.44;61.10
29215;BME280;16252;49.816;7.964;2023-10-19T00:38:07;98187.56;;;14.40;61.01
29215;BME280;16252;49.816;7.964;2023-10-19T00:40:52;98196.03;;;14.51;60.54
29215;BME280;16252;49.816;7.964;2023-10-19T00:43:38;98195.75;;;14.46;60.94
29215;BME280;16252;49.816;7.964;2023-10-19T00:46:18;98185.44;;;14.50;61.08
29215;BME280;16252;49.816;7.964;2023-10-19T00:49:04;98168.00;;;14.46;60.62
29215;BME280;16252;49.816;7.964;2023-10-19T00:51:43;98175.22;;;14.45;60.98
29215;BME280;16252;49.816;7.964;2023-10-19T00:54:26;98147.41;;;14.23;60.98
29215;BME280;16252;49.816;7.964;2023-10-19T00:56:59;98148.81;;;14.19;60.77
29215;BME280;16252;49.816;7.964;2023-10-19T00:59:30;98177.19;;;14.37;60.43
29215;BME280;16252;49.816;7.964;2023-10-19T01:01:56;98190.16;;;14.48;61.27
29215;BME280;16252;49.816;7.964;2023-10-19T01:04:41;98166.16;;;14.31;60.68
29215;BME280;16252;49.816;7.964;2023-10-19T01:07:09;98161.97;;;14.29;60.93
29215;BME280;16252;49.816;7.964;2023-10-19T01:09:43;98148.16;;;14.17;61.14
29215;BME280;16252;49.816;7.964;2023-10-19T01:12:09;98137.94;;;14.13;60.75
29215;BME280;16252;49.816;7.964;2023-10-19T01:15:01;98178.78;;;14.46;60.98
29215;BME280;16252;49.816;7.964;2023-10-19T01:17:30;98164.00;;;14.27;60.59
29215;BME280;16252;49.816;7.964;2023-10-19T01:19:56;98164.19;;;14.25;60.80
29215;BME280;16252;49.816;7.964;2023-10-19T01:22:23;98151.13;;;14.22;60.93
29215;BME280;16252;49.816;7.964;2023-10-19T01:24:52;98115.03;;;14.02;60.86
29215;BME280;16252;49.816;7.964;2023-10-19T01:27:18;98133.41;;;14.13;60.98
29215;BME280;16252;49.816;7.964;2023-10-19T01:29:43;98105.88;;;13.96;60.79
29215;BME280;16252;49.816;7.964;2023-10-19T01:32:09;98112.34;;;14.02;60.85
29215;BME280;16252;49.816;7.964;2023-10-19T01:34:35;98093.63;;;13.94;60.71
29215;BME280;16252;49.816;7.964;2023-10-19T01:37:02;98117.56;;;14.03;60.93
29215;BME280;16252;49.816;7.964;2023-10-19T01:39:33;98147.03;;;14.26;61.26
29215;BME280;16252;49.816;7.964;2023-10-19T01:42:02;98155.94;;;14.27;61.12
29215;BME280;16252;49.816;7.964;2023-10-19T01:44:30;98163.91;;;14.35;60.90
29215;BME280;16252;49.816;7.964;2023-10-19T01:46:55;98131.00;;;14.18;60.81
29215;BME280;16252;49.816;7.964;2023-10-19T01:49:20;98160.00;;;14.38;61.05
29215;BME280;16252;49.816;7.964;2023-10-19T01:51:53;98134.31;;;14.20;60.83
29215;BME280;16252;49.816;7.964;2023-10-19T01:54:19;98153.72;;;14.30;60.99
29215;BME280;16252;49.816;7.964;2023-10-19T01:56:52;98130.41;;;14.23;61.13
29215;BME280;16252;49.816;7.964;2023-10-19T01:59:22;98120.81;;;14.14;61.06
29215;BME280;16252;49.816;7.964;2023-10-19T02:01:48;98124.78;;;14.18;61.39
29215;BME280;16252;49.816;7.964;2023-10-19T02:04:14;98089.28;;;13.93;60.92
29215;BME280;16252;49.816;7.964;2023-10-19T02:06:40;98096.44;;;14.00;60.93
29215;BME280;16252;49.816;7.964;2023-10-19T02:09:11;98088.97;;;14.02;61.55
29215;BME280;16252;49.816;7.964;2023-10-19T02:11:55;98145.56;;;14.39;61.51
29215;BME280;16252;49.816;7.964;2023-10-19T02:14:22;98115.78;;;14.25;61.52
29215;BME280;16252;49.816;7.964;2023-10-19T02:16:51;98130.25;;;14.39;61.11
29215;BME280;16252;49.816;7.964;2023-10-19T02:19:18;98110.59;;;14.24;61.97
29215;BME280;16252;49.816;7.964;2023-10-19T02:21:45;98107.69;;;14.25;61.34
29215;BME280;16252;49.816;7.964;2023-10-19T02:24:13;98113.38;;;14.30;61.39
29215;BME280;16252;49.816;7.964;2023-10-19T02:26:40;98119.88;;;14.36;61.53
29215;BME280;16252;49.816;7.964;2023-10-19T02:29:06;98051.94;;;13.98;61.65
29215;BME280;16252;49.816;7.964;2023-10-19T02:31:40;98099.94;;;14.30;61.65
29215;BME280;16252;49.816;7.964;2023-10-19T02:34:06;98101.22;;;14.20;61.23
29215;BME280;16252;49.816;7.964;2023-10-19T02:36:33;98119.88;;;14.36;61.34
29215;BME280;16252;49.816;7.964;2023-10-19T02:39:03;98129.03;;;14.42;62.27
29215;BME280;16252;49.816;7.964;2023-10-19T02:41:42;98131.47;;;14.37;61.60
29215;BME280;16252;49.816;7.964;2023-10-19T02:44:14;98131.28;;;14.38;62.26
29215;BME280;16252;49.816;7.964;2023-10-19T02:46:42;98119.88;;;14.36;61.81
29215;BME280;16252;49.816;7.964;2023-10-19T02:49:09;98127.94;;;14.36;61.84
29215;BME280;16252;49.816;7.964;2023-10-19T02:51:39;98119.03;;;14.36;61.84
29215;BME280;16252;49.816;7.964;2023-10-19T02:54:07;98113.38;;;14.30;61.92
29215;BME280;16252;49.816;7.964;2023-10-19T02:56:33;98086.50;;;14.16;61.98
29215;BME280;16252;49.816;7.964;2023-10-19T02:59:01;98121.06;;;14.34;61.98
29215;BME280;16252;49.816;7.964;2023-10-19T03:01:30;98102.53;;;14.24;61.74
29215;BME280;16252;49.816;7.964;2023-10-19T03:03:59;98120.50;;;14.53;60.39
29215;BME280;16252;49.816;7.964;2023-10-19T03:06:29;98069.50;;;14.15;61.48
29215;BME280;16252;49.816;7.964;2023-10-19T03:08:59;98110.31;;;14.34;61.66
29215;BME280;16252;49.816;7.964;2023-10-19T03:11:30;98102.81;;;14.29;61.71
29215;BME280;16252;49.816;7.964;2023-10-19T03:13:57;98090.19;;;14.15;61.87
29215;BME280;16252;49.816;7.964;2023-10-19T03:16:23;98105.00;;;14.25;61.74
29215;BME280;16252;49.816;7.964;2023-10-19T03:18:49;98073.50;;;14.04;61.87
29215;BME280;16252;49.816;7.964;2023-10-19T03:21:16;98095.28;;;14.24;62.06
29215;BME280;16252;49.816;7.964;2023-10-19T03:23:41;98088.88;;;14.25;62.04
29215;BME280;16252;49.816;7.964;2023-10-19T03:26:07;98084.91;;;14.21;61.86
29215;BME280;16252;49.816;7.964;2023-10-19T03:28:53;98087.97;;;14.33;61.65
29215;BME280;16252;49.816;7.964;2023-10-19T03:31:22;98066.25;;;14.20;61.81
29215;BME280;16252;49.816;7.964;2023-10-19T03:33:48;98066.34;;;14.26;61.97
29215;BME280;16252;49.816;7.964;2023-10-19T03:36:16;98038.44;;;14.13;61.92
29215;BME280;16252;49.816;7.964;2023-10-19T03:38:41;98055.13;;;14.23;62.37
29215;BME280;16252;49.816;7.964;2023-10-19T03:41:08;98054.28;;;14.22;62.08
29215;BME280;16252;49.816;7.964;2023-10-19T03:43:34;98046.50;;;14.13;62.03
29215;BME280;16252;49.816;7.964;2023-10-19T03:46:02;98047.81;;;14.17;62.30
29215;BME280;16252;49.816;7.964;2023-10-19T03:48:31;98065.53;;;14.26;62.18
29215;BME280;16252;49.816;7.964;2023-10-19T03:51:02;98047.44;;;14.20;62.38
29215;BME280;16252;49.816;7.964;2023-10-19T03:53:28;98043.75;;;14.21;62.10
29215;BME280;16252;49.816;7.964;2023-10-19T03:55:54;98025.25;;;14.18;62.28
29215;BME280;16252;49.816;7.964;2023-10-19T03:58:20;98041.13;;;14.27;61.96
29215;BME280;16252;49.816;7.964;2023-10-19T04:00:46;97992.13;;;13.96;62.35
29215;BME280;16252;49.816;7.964;2023-10-19T04:03:13;98022.91;;;14.08;62.42
29215;BME280;16252;49.816;7.964;2023-10-19T04:05:39;98022.31;;;14.13;62.35
29215;BME280;16252;49.816;7.964;2023-10-19T04:08:05;97991.47;;;13.94;62.54
29215;BME280;16252;49.816;7.964;2023-10-19T04:10:39;98026.84;;;14.12;62.16
29215;BME280;16252;49.816;7.964;2023-10-19T04:13:09;98026.69;;;14.14;62.60
29215;BME280;16252;49.816;7.964;2023-10-19T04:15:35;98020.66;;;14.12;62.43
29215;BME280;16252;49.816;7.964;2023-10-19T04:18:01;98012.31;;;14.06;62.78
29215;BME280;16252;49.816;7.964;2023-10-19T04:20:27;97991.94;;;13.97;62.62
29215;BME280;16252;49.816;7.964;2023-10-19T04:23:07;98015.53;;;14.17;62.43
29215;BME280;16252;49.816;7.964;2023-10-19T04:25:35;98019.16;;;14.24;62.51
29215;BME280;16252;49.816;7.964;2023-10-19T04:28:01;98023.06;;;14.21;62.72
29215;BME280;16252;49.816;7.964;2023-10-19T04:30:26;98028.50;;;14.28;62.87
29215;BME280;16252;49.816;7.964;2023-10-19T04:32:52;98010.00;;;14.18;63.12
29215;BME280;16252;49.816;7.964;2023-10-19T04:35:18;98027.59;;;14.21;62.81
29215;BME280;16252;49.816;7.964;2023-10-19T04:37:48;97980.06;;;13.92;63.13
29215;BME280;16252;49.816;7.964;2023-10-19T04:40:13;98001.84;;;14.12;63.36
29215;BME280;16252;49.816;7.964;2023-10-19T04:42:39;97962.47;;;13.89;63.28
29215;BME280;16252;49.816;7.964;2023-10-19T04:45:05;97966.63;;;13.92;63.33
29215;BME280;16252;49.816;7.964;2023-10-19T04:47:31;97997.09;;;14.14;63.22
29215;BME280;16252;49.816;7.964;2023-10-19T04:49:58;97999.31;;;14.10;63.54
29215;BME280;16252;49.816;7.964;2023-10-19T04:52:23;98016.19;;;14.19;63.36
29215;BME280;16252;49.816;7.964;2023-10-19T04:54:48;98007.88;;;14.14;63.31
29215;BME280;16252;49.816;7.964;2023-10-19T04:57:13;98006.38;;;14.11;63.10
29215;BME280;16252;49.816;7.964;2023-10-19T04:59:39;97992.41;;;14.01;63.46
29215;BME280;16252;49.816;7.964;2023-10-19T05:02:04;98028.69;;;14.26;63.56
29215;BME280;16252;49.816;7.964;2023-10-19T05:04:30;98034.25;;;14.25;63.66
29215;BME280;16252;49.816;7.964;2023-10-19T05:06:56;97990.91;;;13.98;63.14
29215;BME280;16252;49.816;7.964;2023-10-19T05:09:21;97977.75;;;13.88;63.25
29215;BME280;16252;49.816;7.964;2023-10-19T05:11:46;98009.91;;;14.12;63.21
29215;BME280;16252;49.816;7.964;2023-10-19T05:14:15;98006.66;;;14.16;63.74
29215;BME280;16252;49.816;7.964;2023-10-19T05:16:40;98005.34;;;14.12;63.30
29215;BME280;16252;49.816;7.964;2023-10-19T05:19:05;98028.69;;;14.26;63.75
29215;BME280;16252;49.816;7.964;2023-10-19T05:21:31;98026.75;;;14.20;63.62
29215;BME280;16252;49.816;7.964;2023-10-19T05:23:56;98019.53;;;14.21;63.52
29215;BME280;16252;49.816;7.964;2023-10-19T05:26:21;98000.34;;;14.09;63.55
29215;BME280;16252;49.816;7.964;2023-10-19T05:28:47;97974.78;;;13.98;63.84
29215;BME280;16252;49.816;7.964;2023-10-19T05:31:13;97952.56;;;13.75;63.97
29215;BME280;16252;49.816;7.964;2023-10-19T05:33:38;97973.22;;;13.89;63.51
29215;BME280;16252;49.816;7.964;2023-10-19T05:36:04;97980.72;;;13.94;63.84
29215;BME280;16252;49.816;7.964;2023-10-19T05:38:30;97971.94;;;13.85;63.69
29215;BME280;16252;49.816;7.964;2023-10-19T05:40:57;98007.75;;;14.07;63.93
29215;BME280;16252;49.816;7.964;2023-10-19T05:43:27;97939.97;;;13.75;64.11
29215;BME280;16252;49.816;7.964;2023-10-19T05:45:53;98029.91;;;14.24;64.17
29215;BME280;16252;49.816;7.964;2023-10-19T05:48:19;97986.63;;;14.04;64.20
29215;BME280;16252;49.816;7.964;2023-10-19T05:50:45;98015.72;;;14.15;63.88
29215;BME280;16252;49.816;7.964;2023-10-19T05:53:10;98017.41;;;14.16;64.18
29215;BME280;16252;49.816;7.964;2023-10-19T05:55:36;98008.03;;;14.12;64.17
29215;BME280;16252;49.816;7.964;2023-10-19T05:58:01;98024.31;;;14.25;63.94
29215;BME280;16252;49.816;7.964;2023-10-19T06:00:29;98010.03;;;14.25;64.32
29215;BME280;16252;49.816;7.964;2023-10-19T06:02:55;97954.69;;;13.79;64.05
29215;BME280;16252;49.816;7.964;2023-10-19T06:05:21;98005.34;;;14.12;64.11
29215;BME280;16252;49.816;7.964;2023-10-19T06:07:48;98016.75;;;14.14;64.22
29215;BME280;16252;49.816;7.964;2023-10-19T06:10:15;97990.53;;;14.01;64.58
29215;BME280;16252;49.816;7.964;2023-10-19T06:12:45;98044.28;;;14.31;64.87
29215;BME280;16252;49.816;7.964;2023-10-19T06:15:12;98025.47;;;14.16;64.37
29215;BME280;16252;49.816;7.964;2023-10-19T06:17:39;98040.94;;;14.29;64.60
29215;BME280;16252;49.816;7.964;2023-10-19T06:20:09;97979.25;;;13.91;64.54
29215;BME280;16252;49.816;7.964;2023-10-19T06:22:45;98035.59;;;14.50;63.06
29215;BME280;16252;49.816;7.964;2023-10-19T06:25:15;97977.00;;;13.95;63.68
29215;BME280;16252;49.816;7.964;2023-10-19T06:27:43;97999.03;;;14.05;64.01
29215;BME280;16252;49.816;7.964;2023-10-19T06:30:08;97994.72;;;14.04;63.79
29215;BME280;16252;49.816;7.964;2023-10-19T06:32:34;98004.44;;;14.05;64.20
29215;BME280;16252;49.816;7.964;2023-10-19T06:34:59;97980.34;;;13.97;64.01
29215;BME280;16252;49.816;7.964;2023-10-19T06:37:26;97962.09;;;13.92;64.26
29215;BME280;16252;49.816;7.964;2023-10-19T06:39:51;98031.66;;;14.31;64.11
29215;BME280;16252;49.816;7.964;2023-10-19T06:42:17;98039.16;;;14.36;64.23
29215;BME280;16252;49.816;7.964;2023-10-19T06:44:42;98017.94;;;14.26;64.43
29215;BME280;16252;49.816;7.964;2023-10-19T06:47:08;97972.09;;;13.98;64.11
29215;BME280;16252;49.816;7.964;2023-10-19T06:49:34;98018.59;;;14.28;64.23
29215;BME280;16252;49.816;7.964;2023-10-19T06:51:59;98031.66;;;14.31;64.43
29215;BME280;16252;49.816;7.964;2023-10-19T06:54:25;98030.88;;;14.38;64.43
29215;BME280;16252;49.816;7.964;2023-10-19T06:56:53;98020.06;;;14.31;64.58
29215;BME280;16252;49.816;7.964;2023-10-19T06:59:18;98004.75;;;14.31;64.09
29215;BME280;16252;49.816;7.964;2023-10-19T07:01:43;97977.44;;;14.13;64.15
29215;BME280;16252;49.816;7.964;2023-10-19T07:04:08;98011.78;;;14.32;64.22
29215;BME280;16252;49.816;7.964;2023-10-19T07:06:33;98013.75;;;14.39;64.40
29215;BME280;16252;49.816;7.964;2023-10-19T07:08:59;97968.19;;;14.16;64.69
29215;BME280;16252;49.816;7.964;2023-10-19T07:11:24;97981.22;;;14.19;64.61
29215;BME280;16252;49.816;7.964;2023-10-19T07:13:50;97997.72;;;14.30;64.65
29215;BME280;16252;49.816;7.964;2023-10-19T07:16:15;97982.72;;;14.21;64.66
29215;BME280;16252;49.816;7.964;2023-10-19T07:18:41;97990.78;;;14.21;64.84
29215;BME280;16252;49.816;7.964;2023-10-19T07:21:06;97988.53;;;14.25;64.95
29215;BME280;16252;49.816;7.964;2023-10-19T07:23:35;97983.53;;;14.22;64.52
29215;BME280;16252;49.816;7.964;2023-10-19T07:26:03;98042.13;;;14.56;64.63
29215;BME280;16252;49.816;7.964;2023-10-19T07:28:29;98034.66;;;14.58;64.67
29215;BME280;16252;49.816;7.964;2023-10-19T07:30:55;98035.53;;;14.59;64.75
29215;BME280;16252;49.816;7.964;2023-10-19T07:33:21;98000.56;;;14.44;64.73
29215;BME280;16252;49.816;7.964;2023-10-19T07:35:47;97964.59;;;14.30;64.84
29215;BME280;16252;49.816;7.964;2023-10-19T07:38:14;98008.88;;;14.64;64.87
29215;BME280;16252;49.816;7.964;2023-10-19T07:40:40;97986.06;;;14.45;64.74
29215;BME280;16252;49.816;7.964;2023-10-19T07:43:05;97980.50;;;14.46;64.84
29215;BME280;16252;49.816;7.964;2023-10-19T07:45:31;97965.09;;;14.40;64.86
29215;BME280;16252;49.816;7.964;2023-10-19T07:47:58;98013.84;;;14.67;65.10
29215;BME280;16252;49.816;7.964;2023-10-19T07:50:31;98004.50;;;14.63;64.92
29215;BME280;16252;49.816;7.964;2023-10-19T07:52:57;98021.16;;;14.73;65.06
29215;BME280;16252;49.816;7.964;2023-10-19T07:55:23;98011.16;;;14.67;65.32
29215;BME280;16252;49.816;7.964;2023-10-19T07:57:49;98029.56;;;14.85;65.22
29215;BME280;16252;49.816;7.964;2023-10-19T08:00:16;98029.00;;;14.89;65.31
29215;BME280;16252;49.816;7.964;2023-10-19T08:02:42;98039.19;;;14.94;65.54
29215;BME280;16252;49.816;7.964;2023-10-19T08:05:10;98041.28;;;14.99;65.66
29215;BME280;16252;49.816;7.964;2023-10-19T08:07:37;97999.50;;;14.81;66.00
29215;BME280;16252;49.816;7.964;2023-10-19T08:10:05;98000.78;;;14.85;65.91
29215;BME280;16252;49.816;7.964;2023-10-19T08:12:31;98024.50;;;14.97;65.76
29215;BME280;16252;49.816;7.964;2023-10-19T08:14:58;97943.16;;;14.58;65.66
29215;BME280;16252;49.816;7.964;2023-10-19T08:17:23;97994.38;;;14.86;65.65
29215;BME280;16252;49.816;7.964;2023-10-19T08:19:48;97981.34;;;14.90;65.17
29215;BME280;16252;49.816;7.964;2023-10-19T08:22:15;97978.53;;;14.98;65.40
29215;BME280;16252;49.816;7.964;2023-10-19T08:24:41;97965.13;;;14.83;65.62
29215;BME280;16252;49.816;7.964;2023-10-19T08:27:08;98008.06;;;15.13;65.40
29215;BME280;16252;49.816;7.964;2023-10-19T08:29:39;97977.25;;;14.94;65.71
29215;BME280;16252;49.816;7.964;2023-10-19T08:32:04;97969.44;;;14.99;65.64
29215;BME280;16252;49.816;7.964;2023-10-19T08:34:34;97954.28;;;14.98;65.96
29215;BME280;16252;49.816;7.964;2023-10-19T08:37:01;97982.41;;;15.17;65.95
29215;BME280;16252;49.816;7.964;2023-10-19T08:39:27;98015.50;;;15.39;65.60
29215;BME280;16252;49.816;7.964;2023-10-19T08:41:52;97992.84;;;15.27;65.64
29215;BME280;16252;49.816;7.964;2023-10-19T08:44:20;97996.03;;;15.37;65.79
29215;BME280;16252;49.816;7.964;2023-10-19T08:46:45;98012.72;;;15.54;65.79
29215;BME280;16252;49.816;7.964;2023-10-19T08:49:13;97994.66;;;15.48;65.76
29215;BME280;16252;49.816;7.964;2023-10-19T08:51:40;98017.56;;;15.65;65.73
29215;BME280;16252;49.816;7.964;2023-10-19T08:54:06;98005.94;;;15.65;65.89
29215;BME280;16252;49.816;7.964;2023-10-19T08:56:32;97991.22;;;15.67;65.69
29215;BME280;16252;49.816;7.964;2023-10-19T08:59:01;97970.47;;;15.61;65.55
29215;BME280;16252;49.816;7.964;2023-10-19T09:01:29;97960.31;;;15.63;65.64
29215;BME280;16252;49.816;7.964;2023-10-19T09:03:58;97945.63;;;15.66;65.44
29215;BME280;16252;49.816;7.964;2023-10-19T09:06:24;97971.66;;;15.87;65.47
29215;BME280;16252;49.816;7.964;2023-10-19T09:08:50;97978.75;;;15.94;65.30
29215;BME280;16252;49.816;7.964;2023-10-19T09:11:15;97974.03;;;16.03;65.42
29215;BME280;16252;49.816;7.964;2023-10-19T09:13:48;97971.41;;;16.23;65.86
29215;BME280;16252;49.816;7.964;2023-10-19T09:16:16;97905.53;;;15.91;65.86
29215;BME280;16252;49.816;7.964;2023-10-19T09:18:42;97913.84;;;16.02;65.75
29215;BME280;16252;49.816;7.964;2023-10-19T09:21:10;97907.00;;;16.07;65.85
29215;BME280;16252;49.816;7.964;2023-10-19T09:23:46;97920.16;;;16.23;65.30
29215;BME280;16252;49.816;7.964;2023-10-19T09:26:12;97902.09;;;16.23;65.41
29215;BME280;16252;49.816;7.964;2023-10-19T09:28:38;97936.78;;;16.46;65.02
29215;BME280;16252;49.816;7.964;2023-10-19T09:31:04;97950.31;;;16.66;65.18
29215;BME280;16252;49.816;7.964;2023-10-19T09:33:33;97950.09;;;16.68;65.44
29215;BME280;16252;49.816;7.964;2023-10-19T09:36:01;97961.38;;;16.85;65.27
29215;BME280;16252;49.816;7.964;2023-10-19T09:38:27;97937.44;;;16.68;64.91
29215;BME280;16252;49.816;7.964;2023-10-19T09:40:55;97916.25;;;16.59;64.83
29215;BME280;16252;49.816;7.964;2023-10-19T09:43:27;97950.16;;;16.81;64.95
29215;BME280;16252;49.816;7.964;2023-10-19T09:45:57;97950.97;;;16.82;64.89
29215;BME280;16252;49.816;7.964;2023-10-19T09:48:25;97962.81;;;17.14;63.77
29215;BME280;16252;49.816;7.964;2023-10-19T09:50:53;97905.88;;;16.62;64.50
29215;BME280;16252;49.816;7.964;2023-10-19T09:53:25;97920.41;;;16.75;64.38
29215;BME280;16252;49.816;7.964;2023-10-19T09:55:54;97932.50;;;16.79;64.52
29215;BME280;16252;49.816;7.964;2023-10-19T09:58:26;97963.44;;;17.03;64.34
29215;BME280;16252;49.816;7.964;2023-10-19T10:00:55;97937.44;;;16.75;64.20
29215;BME280;16252;49.816;7.964;2023-10-19T10:03:55;97959.31;;;17.07;64.25
29215;BME280;16252;49.816;7.964;2023-10-19T10:06:31;97968.22;;;17.21;63.37
29215;BME280;16252;49.816;7.964;2023-10-19T10:09:17;97965.31;;;17.09;64.65
29215;BME280;16252;49.816;7.964;2023-10-19T10:11:49;97937.25;;;16.83;65.04
29215;BME280;16252;49.816;7.964;2023-10-19T10:14:24;97938.91;;;16.91;64.83
29215;BME280;16252;49.816;7.964;2023-10-19T10:17:03;97946.41;;;17.02;65.16
29215;BME280;16252;49.816;7.964;2023-10-19T10:19:28;97949.13;;;17.02;65.38
29215;BME280;16252;49.816;7.964;2023-10-19T10:22:10;97963.63;;;17.21;65.06
29215;BME280;16252;49.816;7.964;2023-10-19T10:24:46;97950.16;;;17.08;65.46
29215;BME280;16252;49.816;7.964;2023-10-19T10:27:16;97944.53;;;17.09;65.37
29215;BME280;16252;49.816;7.964;2023-10-19T10:29:58;97961.56;;;17.30;65.46
29215;BME280;16252;49.816;7.964;2023-10-19T10:32:46;97954.69;;;17.34;65.08
29215;BME280;16252;49.816;7.964;2023-10-19T10:38:06;97960.69;;;17.49;63.91
29215;BME280;16252;49.816;7.964;2023-10-19T10:40:42;97965.06;;;17.44;64.86
29215;BME280;16252;49.816;7.964;2023-10-19T10:43:07;97931.00;;;17.23;65.11
29215;BME280;16252;49.816;7.964;2023-10-19T10:45:33;97938.25;;;17.36;65.48
29215;BME280;16252;49.816;7.964;2023-10-19T10:47:58;97935.56;;;17.36;65.32
29215;BME280;16252;49.816;7.964;2023-10-19T10:50:26;97908.56;;;17.22;65.09
29215;BME280;16252;49.816;7.964;2023-10-19T10:52:53;97940.13;;;17.42;65.05
29215;BME280;16252;49.816;7.964;2023-10-19T10:55:23;97954.25;;;17.50;65.32
29215;BME280;16252;49.816;7.964;2023-10-19T10:57:50;97928.72;;;17.40;65.43
29215;BME280;16252;49.816;7.964;2023-10-19T11:00:16;97921.19;;;17.42;65.37
29215;BME280;16252;49.816;7.964;2023-10-19T11:02:46;97927.59;;;17.54;65.15
29215;BME280;16252;49.816;7.964;2023-10-19T11:05:13;97927.59;;;17.54;65.50
29215;BME280;16252;49.816;7.964;2023-10-19T11:07:39;97907.25;;;17.51;65.75
29215;BME280;16252;49.816;7.964;2023-10-19T11:10:05;97922.19;;;17.67;65.77
29215;BME280;16252;49.816;7.964;2023-10-19T11:12:31;97906.19;;;17.59;65.76
29215;BME280;16252;49.816;7.964;2023-10-19T11:14:58;97914.66;;;17.69;65.69
29215;BME280;16252;49.816;7.964;2023-10-19T11:17:30;97909.50;;;17.68;66.01
29215;BME280;16252;49.816;7.964;2023-10-19T11:19:56;97891.41;;;17.62;65.50
29215;BME280;16252;49.816;7.964;2023-10-19T11:22:23;97905.53;;;17.70;65.85
29215;BME280;16252;49.816;7.964;2023-10-19T11:24:52;97898.69;;;17.68;66.02
29215;BME280;16252;49.816;7.964;2023-10-19T11:27:23;97900.31;;;17.75;65.97
29215;BME280;16252;49.816;7.964;2023-10-19T11:29:56;97886.59;;;17.70;66.00
29215;BME280;16252;49.816;7.964;2023-10-19T11:32:21;97891.59;;;17.67;66.17
29215;BME280;16252;49.816;7.964;2023-10-19T11:34:47;97920.06;;;17.83;65.85
29215;BME280;16252;49.816;7.964;2023-10-19T11:37:13;97892.66;;;17.66;66.18
29215;BME280;16252;49.816;7.964;2023-10-19T11:39:39;97904.47;;;17.78;66.34
29215;BME280;16252;49.816;7.964;2023-10-19T11:42:04;97875.16;;;17.68;66.19
29215;BME280;16252;49.816;7.964;2023-10-19T11:44:29;97834.69;;;17.48;66.10
29215;BME280;16252;49.816;7.964;2023-10-19T11:46:55;97880.13;;;17.71;65.91
29215;BME280;16252;49.816;7.964;2023-10-19T11:49:20;97855.03;;;17.58;65.76
29215;BME280;16252;49.816;7.964;2023-10-19T11:51:45;97847.38;;;17.48;66.31
29215;BME280;16252;49.816;7.964;2023-10-19T11:54:11;97871.03;;;17.59;66.30
29215;BME280;16252;49.816;7.964;2023-10-19T11:56:38;97867.06;;;17.62;66.30
29215;BME280;16252;49.816;7.964;2023-10-19T11:59:04;97859.19;;;17.53;66.25
29215;BME280;16252;49.816;7.964;2023-10-19T12:01:29;97870.84;;;17.54;66.28
29215;BME280;16252;49.816;7.964;2023-10-19T12:03:54;97884.97;;;17.63;66.30
29215;BME280;16252;49.816;7.964;2023-10-19T12:06:20;97875.03;;;17.50;66.16
29215;BME280;16252;49.816;7.964;2023-10-19T12:08:48;97870.47;;;17.44;66.31
29215;BME280;16252;49.816;7.964;2023-10-19T12:11:14;97900.56;;;17.54;66.33
29215;BME280;16252;49.816;7.964;2023-10-19T12:13:44;97883.16;;;17.43;66.31
29215;BME280;16252;49.816;7.964;2023-10-19T12:16:10;97875.91;;;17.37;66.46
29215;BME280;16252;49.816;7.964;2023-10-19T12:18:40;97855.16;;;17.24;66.28
29215;BME280;16252;49.816;7.964;2023-10-19T12:21:07;97897.91;;;17.47;66.75
29215;BME280;16252;49.816;7.964;2023-10-19T12:23:38;97873.59;;;17.34;66.86
29215;BME280;16252;49.816;7.964;2023-10-19T12:26:03;97888.13;;;17.46;67.25
29215;BME280;16252;49.816;7.964;2023-10-19T12:28:36;97881.91;;;17.46;67.29
29215;BME280;16252;49.816;7.964;2023-10-19T12:31:03;97832.28;;;17.14;67.33
29215;BME280;16252;49.816;7.964;2023-10-19T12:33:30;97842.28;;;17.20;67.56
29215;BME280;16252;49.816;7.964;2023-10-19T12:35:55;97832.72;;;17.17;67.56
29215;BME280;16252;49.816;7.964;2023-10-19T12:38:22;97877.72;;;17.50;67.75
29215;BME280;16252;49.816;7.964;2023-10-19T12:40:49;97813.81;;;17.17;68.01
29215;BME280;16252;49.816;7.964;2023-10-19T12:43:16;97856.31;;;17.48;68.03
29215;BME280;16252;49.816;7.964;2023-10-19T12:45:47;97825.38;;;17.38;67.69
29215;BME280;16252;49.816;7.964;2023-10-19T12:48:16;97849.25;;;17.47;67.73
29215;BME280;16252;49.816;7.964;2023-10-19T12:50:41;97837.19;;;17.43;68.12
29215;BME280;16252;49.816;7.964;2023-10-19T12:53:07;97850.91;;;17.48;68.07
29215;BME280;16252;49.816;7.964;2023-10-19T12:55:33;97840.28;;;17.53;67.91
29215;BME280;16252;49.816;7.964;2023-10-19T12:57:59;97837.78;;;17.52;67.71
29215;BME280;16252;49.816;7.964;2023-10-19T13:00:32;97851.66;;;17.62;67.65
29215;BME280;16252;49.816;7.964;2023-10-19T13:03:09;97845.25;;;17.57;67.85
29215;BME280;16252;49.816;7.964;2023-10-19T13:05:39;97837.56;;;17.53;67.76
29215;BME280;16252;49.816;7.964;2023-10-19T13:08:10;97791.94;;;17.32;68.34